DAUADAAP

Guest
Details From DAUA - TOUAT CHEIKH SIDI MOHAMED BELKEBIR
To DAAP - ILLIZI TAKHAMALT
Flight Number -
Tags generated
Created
Modified
Stats Distance 517 nm / 958 km
Max Altitude 35,000 ft / 10,668 m
Waypoints 7
Social Downloads 0
Likes 0
Share VATSIM

Download

Looking for another format? Having issues loading an existing format? Contact us
Advertisement - Login to hide

Notes

Basic altitude profile: - Ascent Rate: 2500ft/min - Ascent Speed: 250kts - Cruise Altitude: 35000ft - Cruise Speed: 420kts - Descent Rate: 1500ft/min - Descent Speed: 250kts Options: - Use NATs: yes - Use PACOTS: yes - Use low airways: yes - Use high airways: yes

Route

DAUA ADR J41 BOD J61 ILZ DAAP

ID Type Via Altitude Latitude Longitude Leg Dist Tot Dist Heading (true) Name
O DAUA APT - 0 ft / 0 m 27.83764˚ -0.18639˚ - 0 nm - TOUAT CHEIKH SIDI MOHAMED BELKEBIR
ADR VOR - 500 ft / 152 m 27.81704˚ -0.20587˚ 1 nm 1 nm 220° / 220° ADRAR VOR-DME
NSL VOR J41 (AWY-LO) 35,000 ft / 10,668 m 27.23667˚ 2.49250˚ 147 nm 149 nm 103° / 104° IN SALAH VOR-DME
OUCIF FIX J41 (AWY-HI) 35,000 ft / 10,668 m 27.73333˚ 5.00000˚ 136 nm 286 nm 77° / 78° -
BOD VOR J41 (AWY-HI) 27,900 ft / 8,504 m 28.13306˚ 6.83917˚ 100 nm 386 nm 76° / 77° BORDJ OMAR DRISS VOR-DME
ILZ VOR J61 (AWY-LO) 9,500 ft / 2,896 m 26.72333˚ 8.65444˚ 128 nm 515 nm 131° / 132° ILLIZI VOR
O DAAP APT - 0 ft / 0 m 26.72353˚ 8.62265˚ 1 nm 517 nm 270° / 270° ILLIZI TAKHAMALT

Altitude Profile

Advertisement - Login to hide

Weather


0- 5 10 15 20 25 30 35+ Temperature / ° C

Clouds and Precipitation
Forecast for 2017-12-17 18:00 UTC. Updated 28 minutes ago

Ground ~20,000 ft ~40,000 ft Winds

DAUA

Details ICAO DAUA (AZR)
Name TOUAT CHEIKH SIDI MOHAMED BELKEBIR
Region Algeria
Timezone Africa/Algiers (UTC+1.0)
Stats Elevation 919 ft / 280 m (AMSL)
Location 27.837639° -0.186389°
Runways 1
Magnetic Variation 0.086° W

METAR

DAUA 171700Z 36008KT CAVOK 22/M02 Q1017

Decode

TAF

TAF DAUA 171100Z 1712/1812 04014KT CAVOK PROB30 TEMPO 1720/1802 04015G25KT 5000 DRSA TEMPO 1808/1812 04024KT 4000 DRSA

Decode

Departure Runways

ID Width Length Bearing (true) Bearing (mag) Surface Threshold Offset Overrun Length
04 148 ft / 45 m 9,857 ft / 3,005 m 39.53° 39.62° Asphalt 0 ft / 0 m 0 ft / 0 m
22 148 ft / 45 m 9,857 ft / 3,005 m 219.54° 219.63° Asphalt 0 ft / 0 m 0 ft / 0 m

DAAP

Details ICAO DAAP (VVZ)
Name ILLIZI TAKHAMALT
Region Algeria
Timezone Africa/Algiers (UTC+1.0)
Stats Elevation 1,778 ft / 542 m (AMSL)
Location 26.723534° 8.622653°
Runways 1
Magnetic Variation 1.484° E

METAR

DAAP 171700Z 07006KT 8000 SCT040 SCT100 19/03 Q1017

Decode

TAF

Not found

Destination Runways

ID Width Length Bearing (true) Bearing (mag) Surface Threshold Offset Overrun Length
09 148 ft / 45 m 9,902 ft / 3,018 m 90.46° 88.98° Asphalt 0 ft / 0 m 0 ft / 0 m
27 148 ft / 45 m 9,902 ft / 3,018 m 270.47° 268.99° Asphalt 0 ft / 0 m 0 ft / 0 m